createdAt,value
2023-08-15T00:01:01.546Z,13.8
2023-08-15T00:02:08.635Z,13.8
2023-08-15T00:04:22.816Z,13.8
2023-08-15T00:05:29.416Z,13.8
2023-08-15T00:06:36.526Z,13.8
2023-08-15T00:07:43.624Z,13.8
2023-08-15T00:08:50.842Z,13.8
2023-08-15T00:09:57.812Z,13.9
2023-08-15T00:11:04.385Z,13.9
2023-08-15T00:12:11.512Z,13.9
2023-08-15T00:13:18.651Z,13.9
2023-08-15T00:14:25.787Z,13.9
2023-08-15T00:15:32.832Z,13.9
2023-08-15T00:16:39.478Z,13.9
2023-08-15T00:18:53.666Z,14
2023-08-15T00:20:00.733Z,14
2023-08-15T00:21:07.886Z,14
2023-08-15T00:22:14.950Z,14.1
2023-08-15T00:23:21.561Z,14.1
2023-08-15T00:24:28.695Z,14.1
2023-08-15T00:25:35.777Z,14.1
2023-08-15T00:26:42.836Z,14.1
2023-08-15T00:27:49.450Z,14.1
2023-08-15T00:28:56.582Z,14.1
2023-08-15T00:30:03.829Z,14.1
2023-08-15T00:31:10.802Z,14.1
2023-08-15T00:32:17.935Z,14.1
2023-08-15T00:33:24.426Z,14.1
2023-08-15T00:34:31.577Z,14.2
2023-08-15T00:35:38.717Z,14.1
2023-08-15T00:36:45.835Z,14.2
2023-08-15T00:37:52.877Z,14.2
2023-08-15T00:38:59.456Z,14.2
2023-08-15T00:40:06.627Z,14.2
2023-08-15T00:41:13.635Z,14.2
2023-08-15T00:42:20.785Z,14.2
2023-08-15T00:43:27.882Z,14.2
2023-08-15T00:44:34.474Z,14.1
2023-08-15T00:45:41.593Z,14.1
2023-08-15T00:46:48.751Z,14.1
2023-08-15T00:47:55.819Z,14.1
2023-08-15T00:49:02.969Z,14.1
2023-08-15T00:50:09.517Z,14.1
2023-08-15T00:51:16.645Z,14.1
2023-08-15T00:52:23.690Z,14.1
2023-08-15T00:53:30.813Z,14
2023-08-15T00:54:37.997Z,14
2023-08-15T00:55:44.442Z,13.9
2023-08-15T00:56:51.555Z,13.9
2023-08-15T00:57:58.707Z,13.9
2023-08-15T00:59:05.835Z,13.9
2023-08-15T01:00:12.992Z,13.9
2023-08-15T01:01:19.556Z,13.8
2023-08-15T01:02:26.627Z,13.8
2023-08-15T01:03:33.795Z,13.8
2023-08-15T01:04:40.836Z,13.8
2023-08-15T01:05:47.437Z,13.8
2023-08-15T01:08:01.625Z,13.8
2023-08-15T01:09:08.807Z,13.7
2023-08-15T01:11:22.416Z,13.7
2023-08-15T01:12:29.535Z,13.6
2023-08-15T01:13:36.664Z,13.6
2023-08-15T01:14:43.749Z,13.6
2023-08-15T01:15:50.859Z,13.6
2023-08-15T01:16:57.451Z,13.6
2023-08-15T01:18:04.562Z,13.5
2023-08-15T01:19:11.685Z,13.5
2023-08-15T01:20:18.764Z,13.5
2023-08-15T01:21:25.877Z,13.5
2023-08-15T01:22:32.418Z,13.5
2023-08-15T01:23:39.555Z,13.4
2023-08-15T01:24:46.634Z,13.4
2023-08-15T01:25:53.761Z,13.4
2023-08-15T01:27:00.796Z,13.4
2023-08-15T01:28:07.453Z,13.4
2023-08-15T01:29:14.485Z,13.3
2023-08-15T01:30:21.649Z,13.2
2023-08-15T01:31:28.802Z,13.2
2023-08-15T01:32:35.887Z,13.2
2023-08-15T01:33:42.433Z,13.2
2023-08-15T01:34:49.529Z,13.1
2023-08-15T01:35:56.644Z,13.1
2023-08-15T01:37:03.895Z,13.1
2023-08-15T01:38:10.837Z,13.1
2023-08-15T01:39:17.526Z,13.1
2023-08-15T01:40:24.554Z,13
2023-08-15T01:41:31.611Z,13
2023-08-15T01:42:38.758Z,13
2023-08-15T01:43:45.862Z,13
2023-08-15T01:44:52.418Z,13
2023-08-15T01:45:59.623Z,13
2023-08-15T01:47:06.720Z,13
2023-08-15T01:48:13.883Z,13.1
2023-08-15T01:49:20.906Z,13.1
2023-08-15T01:50:27.488Z,13.1
2023-08-15T01:51:34.557Z,13.1
2023-08-15T01:52:41.652Z,13.1
2023-08-15T01:53:50.797Z,13.1
2023-08-15T01:54:55.908Z,13.1
2023-08-15T01:56:02.477Z,13.2
2023-08-15T01:57:09.621Z,13.2
2023-08-15T01:58:16.727Z,13.2
2023-08-15T01:59:23.775Z,13.2
2023-08-15T02:00:30.843Z,13.2
2023-08-15T02:01:37.557Z,13.2
2023-08-15T02:02:44.659Z,13.2
2023-08-15T02:03:51.686Z,13.2
2023-08-15T02:04:58.878Z,13.3
2023-08-15T02:06:05.956Z,13.3
2023-08-15T02:07:12.481Z,13.3
2023-08-15T02:08:19.565Z,13.3
2023-08-15T02:09:26.677Z,13.3
2023-08-15T02:11:40.896Z,13.3
2023-08-15T02:12:47.495Z,13.3
2023-08-15T02:13:54.592Z,13.2
2023-08-15T02:15:01.652Z,13.2
2023-08-15T02:16:08.815Z,13.2
2023-08-15T02:17:15.387Z,13.2
2023-08-15T02:18:22.521Z,13.2
2023-08-15T02:19:29.631Z,13.2
2023-08-15T02:20:36.725Z,13.1
2023-08-15T02:21:43.796Z,13.1
2023-08-15T02:22:50.355Z,13.1
2023-08-15T02:23:57.548Z,13.1
2023-08-15T02:25:04.610Z,13.1
2023-08-15T02:26:11.707Z,13
2023-08-15T02:27:19.201Z,13
2023-08-15T02:28:25.533Z,12.9
2023-08-15T02:29:33.073Z,12.9
2023-08-15T02:30:39.628Z,12.9
2023-08-15T02:31:46.709Z,12.9
2023-08-15T02:32:53.898Z,12.9
2023-08-15T02:34:00.401Z,12.9
2023-08-15T02:35:07.580Z,12.8
2023-08-15T02:36:14.611Z,12.8
2023-08-15T02:37:22.081Z,12.8
2023-08-15T02:39:35.473Z,12.8
2023-08-15T02:40:42.491Z,12.7
2023-08-15T02:41:49.632Z,12.7
2023-08-15T02:42:56.765Z,12.7
2023-08-15T02:44:03.852Z,12.7
2023-08-15T02:45:10.383Z,12.7
2023-08-15T02:46:17.539Z,12.7
2023-08-15T02:47:24.667Z,12.7
2023-08-15T02:48:31.710Z,12.6
2023-08-15T02:49:38.922Z,12.6
2023-08-15T02:50:45.436Z,12.6
2023-08-15T02:51:52.542Z,12.5
2023-08-15T02:52:59.664Z,12.5
2023-08-15T02:54:06.747Z,12.5
2023-08-15T02:55:13.838Z,12.5
2023-08-15T02:56:20.439Z,12.5
2023-08-15T02:57:27.611Z,12.5
2023-08-15T02:58:34.655Z,12.5
2023-08-15T02:59:41.759Z,12.5
2023-08-15T03:00:48.917Z,12.4
2023-08-15T03:01:55.493Z,12.4
2023-08-15T03:03:02.585Z,12.4
2023-08-15T03:04:09.692Z,12.4
2023-08-15T03:05:16.765Z,12.4
2023-08-15T03:06:23.837Z,12.4
2023-08-15T03:07:30.422Z,12.3
2023-08-15T03:08:37.605Z,12.3
2023-08-15T03:09:44.712Z,12.2
2023-08-15T03:10:51.785Z,12.2
2023-08-15T03:11:58.873Z,12.2
2023-08-15T03:13:05.463Z,12.2
2023-08-15T03:15:19.744Z,12.2
2023-08-15T03:16:26.868Z,12.1
2023-08-15T03:17:33.910Z,12.2
2023-08-15T03:18:40.466Z,12.1
2023-08-15T03:19:47.532Z,12.1
2023-08-15T03:20:54.683Z,12.2
2023-08-15T03:22:01.748Z,12.2
2023-08-15T03:23:08.905Z,12.2
2023-08-15T03:24:15.485Z,12.2
2023-08-15T03:25:22.562Z,12.2
2023-08-15T03:26:29.707Z,12.2
2023-08-15T03:27:36.788Z,12.2
2023-08-15T03:28:43.880Z,12.2
2023-08-15T03:29:50.493Z,12.2
2023-08-15T03:30:57.664Z,12.2
2023-08-15T03:32:04.768Z,12.2
2023-08-15T03:33:11.761Z,12.2
2023-08-15T03:34:18.954Z,12.2
2023-08-15T03:35:25.597Z,12.2
2023-08-15T03:36:32.641Z,12.2
2023-08-15T03:37:39.704Z,12.3
2023-08-15T03:38:46.865Z,12.3
2023-08-15T03:39:53.878Z,12.4
2023-08-15T03:41:00.499Z,12.4
2023-08-15T03:42:07.677Z,12.4
2023-08-15T03:43:14.752Z,12.4
2023-08-15T03:44:21.812Z,12.4
2023-08-15T03:45:28.432Z,12.4
2023-08-15T03:46:35.518Z,12.5
2023-08-15T03:47:42.667Z,12.5
2023-08-15T03:48:49.714Z,12.5
2023-08-15T03:49:56.844Z,12.5
2023-08-15T03:51:03.401Z,12.5
2023-08-15T03:52:10.525Z,12.5
2023-08-15T03:53:17.673Z,12.5
2023-08-15T03:54:24.743Z,12.6
2023-08-15T03:55:31.848Z,12.6
2023-08-15T03:56:38.465Z,12.6
2023-08-15T03:57:45.540Z,12.6
2023-08-15T03:58:52.625Z,12.6
2023-08-15T03:59:59.826Z,12.7
2023-08-15T04:01:06.823Z,12.7
2023-08-15T04:02:13.416Z,12.7
2023-08-15T04:03:20.500Z,12.7
2023-08-15T04:04:27.605Z,12.7
2023-08-15T04:05:34.773Z,12.7
2023-08-15T04:07:48.452Z,12.7
2023-08-15T04:08:55.542Z,12.8
2023-08-15T04:10:02.639Z,12.8
2023-08-15T04:11:09.785Z,12.8
2023-08-15T04:12:16.844Z,12.8
2023-08-15T04:13:23.399Z,12.8
2023-08-15T04:14:30.551Z,12.8
2023-08-15T04:15:37.639Z,12.9
2023-08-15T04:16:46.259Z,12.9
2023-08-15T04:18:58.517Z,12.9
2023-08-15T04:20:05.593Z,12.9
2023-08-15T04:21:12.642Z,12.9
2023-08-15T04:22:19.747Z,13
2023-08-15T04:23:26.352Z,13
2023-08-15T04:24:33.442Z,13
2023-08-15T04:25:40.595Z,13
2023-08-15T04:26:47.680Z,13
2023-08-15T04:27:54.794Z,13.1
2023-08-15T04:29:01.352Z,13.1
2023-08-15T04:30:08.474Z,13.1
2023-08-15T04:31:15.664Z,13.1
2023-08-15T04:32:22.676Z,13.1
2023-08-15T04:33:29.817Z,13.1
2023-08-15T04:34:36.357Z,13.1
2023-08-15T04:35:43.466Z,13.1
2023-08-15T04:36:51.068Z,13.1
2023-08-15T04:37:57.716Z,13.1
2023-08-15T04:39:04.819Z,13.2
2023-08-15T04:40:13.280Z,13.2
2023-08-15T04:41:18.544Z,13.2
2023-08-15T04:42:25.569Z,13.2
2023-08-15T04:43:32.685Z,13.2
2023-08-15T04:44:39.932Z,13.2
2023-08-15T04:45:46.441Z,13.2
2023-08-15T04:46:53.448Z,13.2
2023-08-15T04:48:00.691Z,13.3
2023-08-15T04:49:07.688Z,13.3
2023-08-15T04:50:14.850Z,13.3
2023-08-15T04:51:21.404Z,13.3
2023-08-15T04:52:28.563Z,13.3
2023-08-15T05:01:24.902Z,13.5
2023-08-15T05:02:31.432Z,13.5
2023-08-15T05:03:38.552Z,13.5
2023-08-15T05:04:45.602Z,13.5
2023-08-15T05:05:52.817Z,13.5
2023-08-15T05:06:59.866Z,13.5
2023-08-15T05:08:06.471Z,13.5
2023-08-15T05:09:13.522Z,13.5
2023-08-15T05:10:20.629Z,13.5
2023-08-15T05:11:27.760Z,13.5
2023-08-15T05:12:34.885Z,13.6
2023-08-15T05:13:41.406Z,13.6
2023-08-15T05:14:48.646Z,13.6
2023-08-15T05:15:55.750Z,13.6
2023-08-15T05:17:02.755Z,13.6
2023-08-15T05:18:10.989Z,13.6
2023-08-15T05:19:16.485Z,13.6
2023-08-15T05:20:23.528Z,13.6
2023-08-15T05:21:30.686Z,13.6
2023-08-15T05:22:37.782Z,13.7
2023-08-15T05:23:44.902Z,13.6
2023-08-15T05:24:51.397Z,13.7
2023-08-15T05:25:58.526Z,13.7
2023-08-15T05:27:05.705Z,13.7
2023-08-15T05:28:12.813Z,13.7
2023-08-15T05:29:19.848Z,13.7
2023-08-15T05:30:26.526Z,13.7
2023-08-15T05:31:33.568Z,13.8
2023-08-15T05:32:40.662Z,13.8
2023-08-15T05:33:50.824Z,13.8
2023-08-15T05:36:01.466Z,13.8
2023-08-15T05:37:08.548Z,13.8
2023-08-15T05:38:15.650Z,13.8
2023-08-15T05:39:22.726Z,13.8
2023-08-15T05:40:30.008Z,13.9
2023-08-15T05:41:36.465Z,13.9
2023-08-15T05:42:43.526Z,13.9
2023-08-15T05:43:50.749Z,13.9
2023-08-15T05:44:57.793Z,13.9
2023-08-15T05:46:04.374Z,13.9
2023-08-15T05:47:12.578Z,14
2023-08-15T05:48:18.567Z,14
2023-08-15T05:49:25.671Z,14
2023-08-15T05:50:32.828Z,14.1
2023-08-15T05:51:39.348Z,14.1
2023-08-15T05:52:46.508Z,14.1
2023-08-15T05:54:00.800Z,14.1
2023-08-15T05:55:00.796Z,14.1
2023-08-15T05:57:12.396Z,14.1
2023-08-15T05:57:14.383Z,14.2
2023-08-15T05:58:21.529Z,14.2
2023-08-15T05:59:28.606Z,14.2
2023-08-15T06:00:37.003Z,14.2
2023-08-15T06:01:42.877Z,14.2
2023-08-15T06:02:49.394Z,14.3
2023-08-15T06:03:56.880Z,14.2
2023-08-15T06:05:03.601Z,14.2
2023-08-15T06:06:10.663Z,14.2
2023-08-15T06:07:17.827Z,14.2
2023-08-15T06:08:25.922Z,14.2
2023-08-15T06:09:31.511Z,14.2
2023-08-15T06:10:38.579Z,14.2
2023-08-15T06:11:45.761Z,14.2
2023-08-15T06:12:52.765Z,14.2
2023-08-15T06:13:59.425Z,14.2
2023-08-15T06:15:06.626Z,14.2
2023-08-15T06:16:14.196Z,14.2
2023-08-15T06:17:21.031Z,14.2
2023-08-15T06:18:27.807Z,14.2
2023-08-15T06:19:34.418Z,14.2
2023-08-15T06:20:41.540Z,14.2
2023-08-15T06:21:48.612Z,14.2
2023-08-15T06:22:55.742Z,14.2
2023-08-15T06:24:02.827Z,14.2
2023-08-15T06:25:09.459Z,14.2
2023-08-15T06:26:16.554Z,14.2
2023-08-15T06:27:23.797Z,14.2
2023-08-15T06:28:30.745Z,14.2
2023-08-15T06:29:37.819Z,14.3
2023-08-15T06:30:44.458Z,14.3
2023-08-15T06:31:52.785Z,14.3
2023-08-15T06:32:58.708Z,14.3
2023-08-15T06:34:05.727Z,14.4
2023-08-15T06:35:12.859Z,14.4
2023-08-15T06:36:19.480Z,14.4
2023-08-15T06:37:26.497Z,14.4
2023-08-15T06:38:45.635Z,14.4
2023-08-15T06:39:40.739Z,14.4
2023-08-15T06:40:47.934Z,14.5
2023-08-15T06:41:54.436Z,14.5
2023-08-15T06:43:01.562Z,14.5
2023-08-15T06:44:08.706Z,14.6
2023-08-15T06:45:15.788Z,14.6
2023-08-15T06:46:22.391Z,14.6
2023-08-15T06:47:29.467Z,14.7
2023-08-15T06:48:36.543Z,14.7
2023-08-15T06:50:15.757Z,14.8
2023-08-15T06:50:50.783Z,14.8
2023-08-15T06:51:57.405Z,14.8
2023-08-15T06:53:04.463Z,14.9
2023-08-15T06:54:11.515Z,14.9
2023-08-15T06:55:18.733Z,14.9
2023-08-15T06:56:25.798Z,14.9
2023-08-15T06:57:32.308Z,15
2023-08-15T06:58:39.448Z,15
2023-08-15T06:59:46.612Z,15.1
2023-08-15T07:00:53.840Z,15.1
2023-08-15T07:02:00.806Z,15.1
2023-08-15T07:04:14.495Z,15.1
2023-08-15T07:05:21.585Z,15.2
2023-08-15T07:06:28.657Z,15.2
2023-08-15T07:07:35.818Z,15.2
2023-08-15T07:08:42.407Z,15.2
2023-08-15T07:09:49.537Z,15.3
2023-08-15T07:10:56.577Z,15.3
2023-08-15T07:12:03.704Z,15.3
2023-08-15T07:13:10.749Z,15.3
2023-08-15T07:14:17.429Z,15.4
2023-08-15T07:15:24.529Z,15.4
2023-08-15T07:16:31.653Z,15.4
2023-08-15T07:17:38.737Z,15.4
2023-08-15T07:19:52.426Z,15.4
2023-08-15T07:20:59.476Z,15.4
2023-08-15T07:22:06.687Z,15.4
2023-08-15T07:23:29.396Z,15.5
2023-08-15T07:24:20.859Z,15.5
2023-08-15T07:25:27.487Z,15.5
2023-08-15T07:26:35.611Z,15.5
2023-08-15T07:27:41.626Z,15.5
2023-08-15T07:29:56.452Z,15.5
2023-08-15T07:31:10.114Z,15.6
2023-08-15T07:32:13.257Z,15.6
2023-08-15T07:33:16.656Z,15.5
2023-08-15T07:34:23.730Z,15.6
2023-08-15T07:35:30.863Z,15.5
2023-08-15T07:36:37.462Z,15.6
2023-08-15T07:37:44.688Z,15.6
2023-08-15T07:38:51.626Z,15.6
2023-08-15T07:39:58.775Z,15.6
2023-08-15T07:41:05.974Z,15.7
2023-08-15T07:42:12.415Z,15.7
2023-08-15T07:43:19.498Z,15.8
2023-08-15T07:44:26.735Z,15.8
2023-08-15T07:45:33.735Z,15.9
2023-08-15T07:46:41.075Z,15.9
2023-08-15T07:47:48.047Z,15.9
2023-08-15T07:48:55.224Z,16
2023-08-15T07:50:01.648Z,16
2023-08-15T07:51:08.727Z,16.1
2023-08-15T07:52:16.660Z,16.1
2023-08-15T07:53:22.393Z,16.1
2023-08-15T07:54:29.548Z,16.2
2023-08-15T07:55:36.683Z,16.2
2023-08-15T07:56:43.808Z,16.2
2023-08-15T07:57:50.913Z,16.3
2023-08-15T07:58:57.468Z,16.3
2023-08-15T08:00:04.496Z,16.3
2023-08-15T08:01:12.213Z,16.4
2023-08-15T08:02:18.797Z,16.4
2023-08-15T08:03:25.387Z,16.4
2023-08-15T08:04:32.436Z,16.5
2023-08-15T08:05:39.635Z,16.5
2023-08-15T08:06:46.647Z,16.7
2023-08-15T08:07:53.710Z,16.7
2023-08-15T08:09:01.468Z,16.7
2023-08-15T08:10:07.491Z,16.7
2023-08-15T08:11:14.604Z,16.7
2023-08-15T08:12:21.892Z,16.8
2023-08-15T08:13:28.807Z,16.8
2023-08-15T08:14:39.421Z,16.8
2023-08-15T08:15:42.413Z,16.8
2023-08-15T08:16:49.557Z,16.8
2023-08-15T08:18:29.277Z,16.8
2023-08-15T08:19:03.796Z,16.8
2023-08-15T08:20:10.468Z,16.9
2023-08-15T08:21:17.452Z,16.9
2023-08-15T08:22:24.576Z,16.9
2023-08-15T08:23:31.647Z,16.9
2023-08-15T08:24:38.772Z,16.9
2023-08-15T08:25:45.402Z,16.9
2023-08-15T08:26:52.480Z,17
2023-08-15T08:27:59.568Z,17
2023-08-15T08:29:06.688Z,17.1
2023-08-15T08:30:13.789Z,17.1
2023-08-15T08:36:55.405Z,17.3
2023-08-15T08:38:02.556Z,17.3
2023-08-15T08:39:14.657Z,17.4
2023-08-15T08:40:16.705Z,17.4
2023-08-15T08:41:23.847Z,17.4
2023-08-15T08:42:30.431Z,17.4
2023-08-15T08:43:37.548Z,17.4
2023-08-15T08:44:44.659Z,17.5
2023-08-15T08:45:51.838Z,17.6
2023-08-15T08:46:58.808Z,17.6
2023-08-15T08:48:05.494Z,17.6
2023-08-15T08:49:12.464Z,17.6
2023-08-15T08:50:19.648Z,17.6
2023-08-15T08:51:26.817Z,17.6
2023-08-15T08:52:33.794Z,17.7
2023-08-15T08:53:40.433Z,17.8
2023-08-15T08:55:54.625Z,17.8
2023-08-15T08:57:01.773Z,17.7
2023-08-15T08:58:08.864Z,17.7
2023-08-15T08:59:15.458Z,17.6
2023-08-15T09:00:22.529Z,17.6
2023-08-15T09:01:29.760Z,17.6
2023-08-15T09:02:37.031Z,17.6
2023-08-15T09:03:43.370Z,17.6
2023-08-15T09:04:50.385Z,17.6
2023-08-15T09:05:57.570Z,17.6
2023-08-15T09:07:04.617Z,17.6
2023-08-15T09:08:11.830Z,17.6
2023-08-15T09:09:18.351Z,17.6
2023-08-15T09:10:25.528Z,17.6
2023-08-15T09:11:32.541Z,17.6
2023-08-15T09:12:39.679Z,17.6
2023-08-15T09:13:46.913Z,17.6
2023-08-15T09:14:53.328Z,17.6
2023-08-15T09:16:00.444Z,17.6
2023-08-15T09:17:07.598Z,17.6
2023-08-15T09:18:14.657Z,17.6
2023-08-15T09:19:22.099Z,17.6
2023-08-15T09:20:28.400Z,17.6
2023-08-15T09:21:38.575Z,17.6
2023-08-15T09:22:42.581Z,17.6
2023-08-15T09:23:50.878Z,17.7
2023-08-15T09:24:56.805Z,17.6
2023-08-15T09:26:03.299Z,17.6
2023-08-15T09:27:10.464Z,17.6
2023-08-15T09:28:17.548Z,17.6
2023-08-15T09:29:24.671Z,17.7
2023-08-15T09:30:31.803Z,17.6
2023-08-15T09:31:38.423Z,17.6
2023-08-15T09:32:45.517Z,17.7
2023-08-15T09:33:52.522Z,17.8
2023-08-15T09:34:59.696Z,17.8
2023-08-15T09:36:06.818Z,17.9
2023-08-15T09:37:13.319Z,17.9
2023-08-15T09:38:20.515Z,17.9
2023-08-15T09:39:27.695Z,18
2023-08-15T09:40:34.718Z,18
2023-08-15T09:41:41.787Z,18.1
2023-08-15T09:42:48.391Z,18.1
2023-08-15T09:43:55.492Z,18.1
2023-08-15T09:45:02.581Z,18.1
2023-08-15T09:46:09.856Z,18.1
2023-08-15T09:47:16.846Z,18.2
2023-08-15T09:48:23.367Z,18.2
2023-08-15T09:49:30.479Z,18.2
2023-08-15T09:50:37.771Z,18.3
2023-08-15T09:51:44.710Z,18.2
2023-08-15T09:52:53.217Z,18.3
2023-08-15T09:53:58.427Z,18.3
2023-08-15T09:55:06.065Z,18.4
2023-08-15T09:56:12.602Z,18.4
2023-08-15T09:57:20.206Z,18.4
2023-08-15T09:58:26.331Z,18.4
2023-08-15T10:00:40.481Z,18.4
2023-08-15T10:01:47.650Z,18.4
2023-08-15T10:02:54.802Z,18.3
2023-08-15T10:04:01.779Z,18.2
2023-08-15T10:05:08.386Z,18.1
2023-08-15T10:06:16.555Z,18.1
2023-08-15T10:07:22.920Z,18.1
2023-08-15T10:08:29.765Z,18
2023-08-15T10:09:36.336Z,18
2023-08-15T10:10:43.406Z,18
2023-08-15T10:11:50.516Z,18
2023-08-15T10:12:57.669Z,18
2023-08-15T10:14:04.751Z,17.9
2023-08-15T10:15:11.340Z,17.9
2023-08-15T10:16:18.525Z,17.9
2023-08-15T10:17:26.043Z,17.9
2023-08-15T10:18:32.700Z,17.9
2023-08-15T10:19:39.774Z,17.8
2023-08-15T10:20:46.365Z,17.8
2023-08-15T10:21:53.442Z,17.8
2023-08-15T10:23:00.897Z,17.8
2023-08-15T10:24:07.697Z,17.8
2023-08-15T10:25:14.718Z,17.8
2023-08-15T10:26:21.449Z,17.8
2023-08-15T10:27:28.419Z,17.8
2023-08-15T10:28:35.642Z,17.8
2023-08-15T10:29:42.591Z,17.9
2023-08-15T10:30:52.221Z,17.9
2023-08-15T10:31:56.386Z,17.9
2023-08-15T10:33:03.394Z,17.9
2023-08-15T10:34:10.572Z,17.9
2023-08-15T10:35:17.691Z,18
2023-08-15T10:36:26.401Z,18.1
2023-08-15T10:37:31.485Z,18.1
2023-08-15T10:38:38.494Z,18.2
2023-08-15T10:39:45.616Z,18.2
2023-08-15T10:40:52.652Z,18.3
2023-08-15T10:42:00.851Z,18.3
2023-08-15T10:43:06.334Z,18.2
2023-08-15T10:44:13.415Z,18.2
2023-08-15T10:45:20.603Z,18.2
2023-08-15T10:46:27.741Z,18.1
2023-08-15T10:47:34.718Z,18.2
2023-08-15T10:48:55.789Z,18.1
2023-08-15T10:49:48.499Z,18.1
2023-08-15T10:50:55.633Z,18.1
2023-08-15T10:52:02.701Z,18.1
2023-08-15T10:53:09.761Z,18.1
2023-08-15T10:54:16.435Z,18.1
2023-08-15T10:55:23.471Z,18.1
2023-08-15T10:56:30.594Z,18.1
2023-08-15T10:57:37.705Z,18.1
2023-08-15T10:58:44.772Z,18.1
2023-08-15T10:59:51.376Z,18.1
2023-08-15T11:00:58.523Z,18.1
2023-08-15T11:02:05.598Z,18.1
2023-08-15T11:03:12.717Z,18.1
2023-08-15T11:04:19.889Z,18.1
2023-08-15T11:05:26.474Z,18.1
2023-08-15T11:06:33.430Z,18.1
2023-08-15T11:07:40.596Z,18.1
2023-08-15T11:08:47.712Z,18
2023-08-15T11:09:54.284Z,18
2023-08-15T11:11:01.403Z,18
2023-08-15T11:12:08.533Z,18
2023-08-15T11:13:15.579Z,17.9
2023-08-15T11:14:22.653Z,17.9
2023-08-15T11:15:29.277Z,18
2023-08-15T11:16:36.495Z,18
2023-08-15T11:17:43.528Z,18
2023-08-15T11:18:50.645Z,18
2023-08-15T11:20:00.133Z,18
2023-08-15T11:21:04.294Z,18
2023-08-15T11:22:11.351Z,18
2023-08-15T11:23:18.572Z,18
2023-08-15T11:24:26.682Z,18
2023-08-15T11:25:32.667Z,18
2023-08-15T11:26:39.449Z,18
2023-08-15T11:28:53.527Z,18
2023-08-15T11:30:00.708Z,18.1
2023-08-15T11:31:20.056Z,18.1
2023-08-15T11:32:14.300Z,18.1
2023-08-15T11:33:21.366Z,18.1
2023-08-15T11:34:28.558Z,18.1
2023-08-15T11:35:43.076Z,18.1
2023-08-15T11:36:42.691Z,18.1
2023-08-15T11:37:49.346Z,18.1
2023-08-15T11:38:56.468Z,18.1
2023-08-15T11:40:03.528Z,18.1
2023-08-15T11:41:10.586Z,18.1
2023-08-15T11:42:17.859Z,18
2023-08-15T11:43:24.315Z,18
2023-08-15T11:44:31.432Z,18
2023-08-15T11:45:38.602Z,17.9
2023-08-15T11:47:52.791Z,18
2023-08-15T11:48:59.372Z,17.9
2023-08-15T11:50:06.422Z,17.9
2023-08-15T11:51:13.560Z,18
2023-08-15T11:52:21.139Z,17.9
2023-08-15T11:53:27.823Z,18
2023-08-15T11:54:34.353Z,18
2023-08-15T11:55:41.471Z,18
2023-08-15T11:56:48.598Z,18
2023-08-15T11:57:55.647Z,17.9
2023-08-15T11:59:02.757Z,17.9
2023-08-15T12:00:09.329Z,17.8
2023-08-15T12:01:16.607Z,17.9
2023-08-15T12:02:23.547Z,17.9
2023-08-15T12:03:30.711Z,17.9
2023-08-15T12:04:38.312Z,17.9
2023-08-15T12:05:44.358Z,17.8
2023-08-15T12:06:51.488Z,17.8
2023-08-15T12:07:58.601Z,17.8
2023-08-15T12:09:07.048Z,17.7
2023-08-15T12:10:12.287Z,17.7
2023-08-15T12:11:19.420Z,17.6
2023-08-15T12:12:26.474Z,17.6
2023-08-15T12:13:33.534Z,17.6
2023-08-15T12:14:50.805Z,17.5
2023-08-15T12:15:47.368Z,17.4
2023-08-15T12:16:54.408Z,17.4
2023-08-15T12:18:01.451Z,17.4
2023-08-15T12:19:08.562Z,17.4
2023-08-15T12:20:15.760Z,17.4
2023-08-15T12:21:22.230Z,17.3
2023-08-15T12:22:31.174Z,17.4
2023-08-15T12:23:36.530Z,17.4
2023-08-15T12:24:43.550Z,17.4
2023-08-15T12:25:50.707Z,17.4
2023-08-15T12:26:57.309Z,17.4
2023-08-15T12:28:04.375Z,17.4
2023-08-15T12:29:11.443Z,17.4
2023-08-15T12:30:19.884Z,17.4
2023-08-15T12:31:25.724Z,17.4
2023-08-15T12:32:32.268Z,17.5
2023-08-15T12:33:47.488Z,17.6
2023-08-15T12:34:46.490Z,17.6
2023-08-15T12:35:53.569Z,17.6
2023-08-15T12:37:01.805Z,17.6
2023-08-15T12:38:07.329Z,17.6
2023-08-15T12:39:14.440Z,17.6
2023-08-15T12:40:30.660Z,17.7
2023-08-15T12:41:28.653Z,17.6
2023-08-15T12:42:35.763Z,17.6
2023-08-15T12:43:42.249Z,17.6
2023-08-15T12:44:49.415Z,17.6
2023-08-15T12:45:56.553Z,17.6
2023-08-15T12:47:03.632Z,17.6
2023-08-15T12:48:10.777Z,17.6
2023-08-15T12:49:17.349Z,17.6
2023-08-15T12:50:24.362Z,17.7
2023-08-15T12:51:31.521Z,17.6
2023-08-15T12:52:38.605Z,17.7
2023-08-15T12:53:45.773Z,17.7
2023-08-15T12:54:52.266Z,17.7
2023-08-15T12:57:06.506Z,17.7
2023-08-15T12:58:13.683Z,17.6
2023-08-15T12:59:20.695Z,17.6
2023-08-15T13:00:27.433Z,17.6
2023-08-15T13:01:40.774Z,17.6
2023-08-15T13:02:41.564Z,17.6
2023-08-15T13:03:50.983Z,17.5
2023-08-15T13:04:55.315Z,17.6
2023-08-15T13:06:02.849Z,17.7
2023-08-15T13:07:09.421Z,17.7
2023-08-15T13:08:16.583Z,17.7
2023-08-15T13:09:23.676Z,17.7
2023-08-15T13:10:30.295Z,17.6
2023-08-15T13:11:37.322Z,17.7
2023-08-15T13:12:44.455Z,17.7
2023-08-15T13:13:51.570Z,17.7
2023-08-15T13:14:58.689Z,17.6
2023-08-15T13:16:05.279Z,17.7
2023-08-15T13:17:12.365Z,17.7
2023-08-15T13:18:19.518Z,17.6
2023-08-15T13:19:26.579Z,17.7
2023-08-15T13:20:33.696Z,17.7
2023-08-15T13:21:40.293Z,17.8
2023-08-15T13:22:47.357Z,17.8
2023-08-15T13:23:54.469Z,17.8
2023-08-15T13:25:01.626Z,17.8
2023-08-15T13:26:08.736Z,17.8
2023-08-15T13:27:15.240Z,17.8
2023-08-15T13:28:22.350Z,17.9
2023-08-15T13:29:29.510Z,17.9
2023-08-15T13:30:36.699Z,17.9
2023-08-15T13:31:43.693Z,18
2023-08-15T13:32:51.385Z,17.9
2023-08-15T13:33:57.397Z,18
2023-08-15T13:35:04.480Z,18
2023-08-15T13:36:11.705Z,18.1
2023-08-15T13:37:18.717Z,18.1
2023-08-15T13:38:25.294Z,18
2023-08-15T13:39:32.405Z,18
2023-08-15T13:40:39.465Z,18
2023-08-15T13:41:46.630Z,17.9
2023-08-15T13:42:53.777Z,17.9
2023-08-15T13:44:00.325Z,17.9
2023-08-15T13:45:09.203Z,17.9
2023-08-15T13:46:14.580Z,17.9
2023-08-15T13:47:21.954Z,17.9
2023-08-15T13:48:28.741Z,17.9
2023-08-15T13:49:35.373Z,17.9
2023-08-15T13:50:42.398Z,17.9
2023-08-15T13:51:49.473Z,17.9
2023-08-15T13:53:05.117Z,18
2023-08-15T13:54:04.718Z,17.9
2023-08-15T13:55:17.602Z,18
2023-08-15T13:56:17.451Z,17.9
2023-08-15T13:57:24.692Z,17.9
2023-08-15T13:58:31.564Z,17.9
2023-08-15T13:59:38.707Z,17.9
2023-08-15T14:00:45.420Z,17.9
2023-08-15T14:01:52.485Z,17.9
2023-08-15T14:02:59.584Z,17.9
2023-08-15T14:04:09.751Z,17.9
2023-08-15T14:05:13.716Z,17.9
2023-08-15T14:06:20.397Z,18
2023-08-15T14:07:27.451Z,18
2023-08-15T14:08:34.472Z,17.9
2023-08-15T14:09:41.624Z,17.9
2023-08-15T14:10:48.718Z,18
2023-08-15T14:11:55.315Z,18
2023-08-15T14:13:02.448Z,18
2023-08-15T14:14:09.540Z,18.1
2023-08-15T14:15:16.665Z,18.1
2023-08-15T14:16:23.182Z,18
2023-08-15T14:17:30.354Z,17.9
2023-08-15T14:18:37.411Z,17.9
2023-08-15T14:19:44.558Z,17.8
2023-08-15T14:20:51.652Z,17.8
2023-08-15T14:21:58.214Z,17.7
2023-08-15T14:23:05.377Z,17.6
2023-08-15T14:25:19.534Z,17.6
2023-08-15T14:26:26.669Z,17.6
2023-08-15T14:27:33.261Z,17.7
2023-08-15T14:28:40.412Z,17.7
2023-08-15T14:29:47.425Z,17.8
2023-08-15T14:30:54.615Z,17.8
2023-08-15T14:32:01.611Z,17.9
2023-08-15T14:33:08.565Z,17.9
2023-08-15T14:34:15.398Z,18
2023-08-15T14:35:22.497Z,18.1
2023-08-15T14:36:29.609Z,18.1
2023-08-15T14:37:36.689Z,18.1
2023-08-15T14:38:43.537Z,18.1
2023-08-15T14:39:50.307Z,18.1
2023-08-15T14:40:57.459Z,18.1
2023-08-15T14:42:04.566Z,18
2023-08-15T14:43:11.707Z,18
2023-08-15T14:44:18.229Z,18
2023-08-15T14:45:25.364Z,18
2023-08-15T14:46:32.521Z,17.9
2023-08-15T14:47:39.672Z,18
2023-08-15T14:48:46.659Z,17.9
2023-08-15T14:49:53.266Z,17.8
2023-08-15T14:51:00.416Z,17.8
2023-08-15T14:52:07.510Z,17.8
2023-08-15T14:53:14.554Z,17.8
2023-08-15T14:54:21.724Z,17.9
2023-08-15T14:55:28.249Z,17.9
2023-08-15T14:56:35.330Z,17.9
2023-08-15T14:57:42.494Z,17.9
2023-08-15T14:58:49.621Z,17.9
2023-08-15T14:59:56.738Z,17.9
2023-08-15T15:01:04.341Z,17.9
2023-08-15T15:02:10.448Z,18
2023-08-15T15:03:17.628Z,18.1
2023-08-15T15:04:24.551Z,18
2023-08-15T15:05:31.706Z,18.1
2023-08-15T15:06:38.307Z,18.1
2023-08-15T15:07:45.410Z,18.2
2023-08-15T15:08:52.446Z,18.2
2023-08-15T15:09:59.617Z,18.2
2023-08-15T15:11:06.764Z,18.3
2023-08-15T15:12:13.313Z,18.3
2023-08-15T15:13:20.955Z,18.2
2023-08-15T15:14:27.488Z,18.2
2023-08-15T15:15:51.394Z,18.2
2023-08-15T15:16:41.148Z,18.2
2023-08-15T15:17:48.320Z,18.2
2023-08-15T15:18:55.552Z,18.2
2023-08-15T15:20:02.577Z,18.1
2023-08-15T15:21:09.665Z,18.1
2023-08-15T15:22:16.242Z,18.1
2023-08-15T15:23:23.336Z,18.1
2023-08-15T15:24:30.370Z,18
2023-08-15T15:25:37.495Z,18
2023-08-15T15:26:44.674Z,18.1
2023-08-15T15:27:51.161Z,18.1
2023-08-15T15:28:58.341Z,18.1
2023-08-15T15:30:05.602Z,18.1
2023-08-15T15:31:13.560Z,18.2
2023-08-15T15:32:19.900Z,18.2
2023-08-15T15:33:26.180Z,18.3